Time;durP1;ratioP1;P1;durP2;ratioP2;P2;SDS_P1;SDS_P2;PMS_P1;PMS_P2;Temp;Humidity;BMP_temperature;BMP_pressure;BME280_temperature;BME280_humidity;BME280_pressure;Samples;Min_cycle;Max_cycle;Signal;HPM_P1;HPM_P2
2023/05/28 00:00:30;;;;;;;12.55;6.18;;;15.20;81.10;;;;;;4814003;29;20031;-70
2023/05/28 05:01:38;;;;;;;11.23;5.47;;;13.20;95.80;;;;;;5793128;23;20039;-71
2023/05/28 05:04:06;;;;;;;10.80;5.15;;;13.30;95.10;;;;;;4892046;29;20317;-69
2023/05/28 05:06:33;;;;;;;10.07;5.10;;;13.40;94.30;;;;;;4905019;29;20072;-69
2023/05/28 05:08:59;;;;;;;12.82;5.97;;;13.40;93.80;;;;;;4888877;29;20037;-72
2023/05/28 05:11:26;;;;;;;11.27;5.13;;;13.50;93.80;;;;;;4874115;29;20086;-69
2023/05/28 05:13:52;;;;;;;11.20;5.60;;;13.60;93.90;;;;;;4872107;29;20045;-69
2023/05/28 05:16:19;;;;;;;11.43;5.50;;;13.60;94.20;;;;;;4888234;29;20049;-70
2023/05/28 05:18:45;;;;;;;10.98;5.38;;;13.70;93.60;;;;;;4875912;29;20104;-70
2023/05/28 05:21:12;;;;;;;11.82;5.30;;;13.70;93.80;;;;;;4873590;29;20314;-69
2023/05/28 05:23:39;;;;;;;12.82;5.70;;;13.70;92.80;;;;;;4881682;29;20029;-69
2023/05/28 05:26:16;;;;;;;10.00;5.78;;;13.80;92.80;;;;;;4884096;29;20310;-69
2023/05/28 05:28:44;;;;;;;11.30;5.27;;;13.80;93.40;;;;;;4871893;29;20072;-69
2023/05/28 05:31:13;;;;;;;11.52;5.13;;;13.90;92.90;;;;;;4871367;29;20317;-71
2023/05/28 05:33:42;;;;;;;11.13;5.32;;;14.00;93.10;;;;;;4871877;29;20037;-71
2023/05/28 05:36:28;;;;;;;11.68;5.50;;;14.10;92.70;;;;;;4884668;29;20040;-71
2023/05/28 05:39:13;;;;;;;11.65;5.82;;;14.20;92.90;;;;;;4889545;29;20398;-70
2023/05/28 05:41:40;;;;;;;12.73;5.90;;;14.20;92.80;;;;;;4891432;29;20056;-70
2023/05/28 05:44:11;;;;;;;12.43;5.50;;;14.30;92.50;;;;;;4874538;29;20039;-71
2023/05/28 05:46:36;;;;;;;13.00;5.85;;;14.40;92.20;;;;;;4891665;29;20021;-69
2023/05/28 05:49:02;;;;;;;12.77;5.85;;;14.50;91.70;;;;;;4890997;29;20045;-70
2023/05/28 05:51:28;;;;;;;12.63;5.63;;;14.60;91.90;;;;;;4891824;29;20050;-70
2023/05/28 05:53:54;;;;;;;10.57;5.25;;;14.60;91.50;;;;;;4874893;29;20064;-70
2023/05/28 05:56:20;;;;;;;9.82;5.05;;;14.70;91.00;;;;;;4879952;29;20282;-70
2023/05/28 05:58:46;;;;;;;10.07;5.13;;;14.80;91.20;;;;;;4882852;29;20069;-70
2023/05/28 06:01:16;;;;;;;10.88;5.32;;;14.90;91.00;;;;;;4873820;29;20096;-70
2023/05/28 06:03:42;;;;;;;9.75;5.43;;;15.00;91.30;;;;;;4871485;29;20387;-70
2023/05/28 06:06:27;;;;;;;9.93;5.60;;;15.10;90.30;;;;;;4880772;29;20037;-71
2023/05/28 06:09:11;;;;;;;9.85;4.80;;;15.10;90.20;;;;;;4876365;29;20065;-70
2023/05/28 06:11:44;;;;;;;14.35;5.18;;;15.30;90.00;;;;;;4869213;29;20188;-70
2023/05/28 06:14:09;;;;;;;10.35;5.20;;;15.40;88.00;;;;;;4874047;29;20071;-70
2023/05/28 06:16:36;;;;;;;11.38;5.03;;;15.50;86.30;;;;;;4874557;29;20033;-70
2023/05/28 06:19:01;;;;;;;11.25;4.57;;;15.50;86.00;;;;;;4890618;29;20036;-70
2023/05/28 06:21:28;;;;;;;9.18;4.25;;;15.60;84.00;;;;;;4890906;29;20214;-71
2023/05/28 06:23:54;;;;;;;8.63;4.78;;;15.60;83.40;;;;;;4874127;29;20080;-71
2023/05/28 06:26:20;;;;;;;13.25;4.53;;;15.70;83.70;;;;;;4873957;29;20195;-71
2023/05/28 06:28:46;;;;;;;9.45;4.78;;;15.80;85.00;;;;;;4874125;29;20025;-73
2023/05/28 06:31:12;;;;;;;8.80;4.30;;;15.90;84.30;;;;;;4874015;29;20048;-71
2023/05/28 06:33:38;;;;;;;8.52;4.25;;;16.00;84.50;;;;;;4874337;29;20041;-71
2023/05/28 06:36:04;;;;;;;8.18;4.32;;;16.10;84.40;;;;;;4890388;29;20073;-71
2023/05/28 06:38:30;;;;;;;10.30;4.70;;;16.30;83.90;;;;;;4860395;29;20215;-71
2023/05/28 06:40:57;;;;;;;9.75;4.68;;;16.40;84.20;;;;;;4855804;29;20026;-70
2023/05/28 06:43:25;;;;;;;12.85;4.85;;;16.50;83.40;;;;;;4855162;29;20063;-70
2023/05/28 06:46:08;;;;;;;9.65;4.40;;;16.60;81.80;;;;;;4855312;29;20101;-71
2023/05/28 06:48:34;;;;;;;10.20;4.45;;;16.50;82.00;;;;;;4871988;29;20100;-72
2023/05/28 06:50:59;;;;;;;10.27;4.07;;;16.60;81.70;;;;;;4871150;29;20227;-70
2023/05/28 06:53:25;;;;;;;7.80;3.80;;;16.80;79.70;;;;;;4871569;29;20037;-71
2023/05/28 06:55:52;;;;;;;8.85;4.03;;;16.80;79.70;;;;;;4855469;29;20078;-72
2023/05/28 06:58:56;;;;;;;9.02;3.85;;;16.90;79.40;;;;;;4808178;29;20258;-70
2023/05/28 07:01:40;;;;;;;8.52;3.47;;;17.00;77.80;;;;;;4799560;29;20058;-70
2023/05/28 07:04:26;;;;;;;7.80;3.83;;;17.20;78.40;;;;;;4853370;29;20052;-71
2023/05/28 07:06:59;;;;;;;8.48;3.88;;;17.40;76.80;;;;;;4857368;29;20074;-73
2023/05/28 07:09:30;;;;;;;6.10;3.35;;;17.40;76.20;;;;;;4875777;29;20025;-73
2023/05/28 07:11:56;;;;;;;9.18;3.55;;;17.60;76.50;;;;;;4857671;29;20030;-71
2023/05/28 07:14:23;;;;;;;7.03;3.40;;;17.70;74.60;;;;;;4854703;29;20273;-71
2023/05/28 07:16:49;;;;;;;8.60;3.60;;;17.90;74.60;;;;;;4855028;29;20036;-70
2023/05/28 07:19:15;;;;;;;8.85;3.72;;;17.90;73.60;;;;;;4870906;29;20061;-71
2023/05/28 07:21:41;;;;;;;8.63;3.72;;;18.00;74.80;;;;;;4854970;29;20207;-71
2023/05/28 07:24:08;;;;;;;9.23;3.78;;;18.20;74.20;;;;;;4839461;29;20078;-71
2023/05/28 07:26:35;;;;;;;9.35;3.70;;;18.30;73.30;;;;;;4854701;29;20349;-72
2023/05/28 07:29:02;;;;;;;9.25;3.50;;;18.40;73.20;;;;;;4854833;29;20032;-71
2023/05/28 07:31:31;;;;;;;8.95;3.50;;;18.40;72.20;;;;;;4871053;29;20026;-72
2023/05/28 07:33:58;;;;;;;8.82;3.80;;;18.40;73.30;;;;;;4854626;29;20045;-71
2023/05/28 07:36:28;;;;;;;9.75;3.90;;;18.50;73.70;;;;;;4855316;29;20042;-71
2023/05/28 07:38:54;;;;;;;8.57;3.90;;;18.60;74.00;;;;;;4854730;29;20218;-72
2023/05/28 07:41:21;;;;;;;8.05;3.60;;;18.80;73.50;;;;;;4854167;29;20041;-72
2023/05/28 07:44:10;;;;;;;6.07;3.40;;;18.80;73.40;;;;;;4854269;29;20025;-71
2023/05/28 07:46:36;;;;;;;9.52;3.80;;;19.10;74.20;;;;;;4854685;29;20108;-71
2023/05/28 07:49:13;;;;;;;8.10;3.40;;;19.20;72.70;;;;;;4854357;29;20154;-70
2023/05/28 07:51:45;;;;;;;8.68;3.53;;;19.30;71.90;;;;;;4854287;29;20053;-71
2023/05/28 07:54:21;;;;;;;8.07;3.60;;;19.40;71.90;;;;;;4853892;29;20045;-70
2023/05/28 07:56:48;;;;;;;8.60;3.47;;;19.50;71.90;;;;;;4856943;29;20049;-74
2023/05/28 07:59:22;;;;;;;8.25;3.58;;;19.60;71.50;;;;;;4886633;29;20036;-71
2023/05/28 08:01:48;;;;;;;8.75;3.85;;;19.70;70.90;;;;;;4871391;29;20076;-71
2023/05/28 08:04:14;;;;;;;10.95;3.50;;;19.60;70.60;;;;;;4872277;29;20363;-70
2023/05/28 08:06:40;;;;;;;12.00;3.92;;;19.80;71.90;;;;;;4857926;29;20315;-70
2023/05/28 08:09:10;;;;;;;7.75;3.55;;;19.90;71.20;;;;;;4854758;29;20061;-71
2023/05/28 08:11:37;;;;;;;9.07;3.75;;;20.00;70.20;;;;;;4858179;29;20379;-70
2023/05/28 08:14:03;;;;;;;9.27;4.15;;;20.00;71.20;;;;;;4854198;29;20109;-71
2023/05/28 08:16:30;;;;;;;9.00;3.78;;;20.00;70.30;;;;;;4869317;29;20035;-70
2023/05/28 08:19:14;;;;;;;11.90;3.83;;;20.10;70.00;;;;;;4888391;29;20035;-71
2023/05/28 08:21:40;;;;;;;7.50;3.60;;;20.20;70.70;;;;;;4888611;29;20041;-70
2023/05/28 08:24:07;;;;;;;7.28;3.58;;;20.20;69.70;;;;;;4872371;29;20025;-71
2023/05/28 08:26:33;;;;;;;10.07;4.00;;;20.30;70.50;;;;;;4871995;29;20311;-70
2023/05/28 08:29:00;;;;;;;11.05;3.92;;;20.40;69.70;;;;;;4872425;29;20040;-70
2023/05/28 08:31:27;;;;;;;7.28;3.95;;;20.30;69.70;;;;;;4872016;29;20017;-71
2023/05/28 08:34:16;;;;;;;10.32;3.58;;;20.50;71.40;;;;;;4880801;29;20049;-70
2023/05/28 08:36:44;;;;;;;7.90;3.65;;;20.60;72.00;;;;;;4869165;29;20029;-71
2023/05/28 08:39:14;;;;;;;8.85;3.58;;;20.90;71.40;;;;;;4863888;29;20086;-69
2023/05/28 08:41:43;;;;;;;7.72;3.38;;;20.90;68.90;;;;;;4872483;29;20021;-69
2023/05/28 08:44:09;;;;;;;7.78;3.45;;;21.00;69.50;;;;;;4872301;29;20330;-69
2023/05/28 08:46:36;;;;;;;9.35;3.50;;;20.90;69.10;;;;;;4872209;29;20036;-69
2023/05/28 08:49:22;;;;;;;10.43;3.88;;;20.90;68.50;;;;;;4871857;29;20128;-73
2023/05/28 08:51:52;;;;;;;8.80;3.45;;;21.00;69.40;;;;;;4888595;29;20037;-70
2023/05/28 08:54:20;;;;;;;8.73;3.67;;;21.10;68.90;;;;;;4871665;29;20116;-70
2023/05/28 08:56:45;;;;;;;9.73;3.80;;;21.20;69.50;;;;;;4872219;29;20021;-70
2023/05/28 08:59:13;;;;;;;10.73;4.30;;;21.30;69.50;;;;;;4888258;29;20032;-71
2023/05/28 09:01:40;;;;;;;8.63;3.38;;;21.40;70.80;;;;;;4888286;29;20040;-70
2023/05/28 09:04:08;;;;;;;9.32;3.95;;;21.60;70.00;;;;;;4872156;29;20031;-70
2023/05/28 09:06:40;;;;;;;9.65;4.43;;;21.70;68.80;;;;;;4855850;29;20030;-70
2023/05/28 09:09:11;;;;;;;10.98;3.60;;;21.70;68.40;;;;;;4854795;29;20314;-70
2023/05/28 09:11:48;;;;;;;12.02;3.67;;;21.80;69.00;;;;;;4870933;29;20053;-70
2023/05/28 09:14:19;;;;;;;9.35;3.45;;;22.00;69.10;;;;;;4854904;29;20346;-70
2023/05/28 09:16:45;;;;;;;8.73;3.67;;;22.10;67.40;;;;;;4873701;29;20039;-70
2023/05/28 09:19:16;;;;;;;10.60;4.03;;;22.20;68.00;;;;;;4856597;29;20142;-70
2023/05/28 09:21:57;;;;;;;8.85;3.58;;;22.30;70.40;;;;;;4856932;29;20037;-70
2023/05/28 09:24:52;;;;;;;8.40;3.72;;;22.20;66.70;;;;;;4872766;29;20045;-71
2023/05/28 09:27:45;;;;;;;7.25;3.35;;;22.30;67.80;;;;;;4857150;29;20323;-70
2023/05/28 09:30:11;;;;;;;9.05;3.58;;;22.20;67.20;;;;;;4873234;29;20057;-70
2023/05/28 09:32:37;;;;;;;6.47;3.30;;;22.50;67.90;;;;;;4873035;29;20041;-71
2023/05/28 09:35:07;;;;;;;9.27;3.53;;;22.60;67.00;;;;;;4876774;29;20221;-73
2023/05/28 09:37:34;;;;;;;9.63;3.58;;;22.80;66.10;;;;;;4882056;29;20037;-71
2023/05/28 09:40:07;;;;;;;8.70;3.58;;;22.80;65.00;;;;;;4889297;29;20085;-71
2023/05/28 09:42:39;;;;;;;10.52;3.60;;;23.00;66.50;;;;;;4891311;29;20393;-71
2023/05/28 09:45:05;;;;;;;7.65;3.20;;;23.20;66.00;;;;;;4891706;29;20044;-71
2023/05/28 09:47:31;;;;;;;6.70;3.10;;;23.40;65.10;;;;;;4891278;29;20222;-70
2023/05/28 09:49:56;;;;;;;10.00;3.55;;;23.50;64.50;;;;;;4891527;29;20065;-71
2023/05/28 09:52:23;;;;;;;7.95;3.38;;;23.60;64.00;;;;;;4891006;29;20065;-71
2023/05/28 09:54:55;;;;;;;7.05;3.22;;;23.60;63.90;;;;;;4859517;29;20321;-71
2023/05/28 09:57:26;;;;;;;8.50;3.90;;;23.60;64.10;;;;;;4884048;29;20037;-71
2023/05/28 09:59:56;;;;;;;8.82;2.90;;;23.70;64.50;;;;;;4872954;29;20315;-71
2023/05/28 10:02:40;;;;;;;10.40;3.40;;;23.80;62.60;;;;;;4872152;29;20045;-71
2023/05/28 10:05:08;;;;;;;7.28;3.67;;;23.90;62.00;;;;;;4869243;29;20105;-71
2023/05/28 10:07:34;;;;;;;9.15;3.42;;;23.90;60.00;;;;;;4872506;29;20238;-71
2023/05/28 10:10:01;;;;;;;7.75;2.95;;;23.80;61.20;;;;;;4886571;29;20318;-70
2023/05/28 10:12:30;;;;;;;8.43;3.50;;;24.10;61.50;;;;;;4883892;29;20211;-74
2023/05/28 10:14:57;;;;;;;8.18;3.10;;;24.10;60.10;;;;;;4891256;29;20051;-72
2023/05/28 10:17:23;;;;;;;7.07;3.13;;;24.10;60.40;;;;;;4890894;29;20040;-70
2023/05/28 10:19:49;;;;;;;8.27;3.35;;;24.20;62.60;;;;;;4886906;29;20041;-70
2023/05/28 10:22:18;;;;;;;7.93;3.15;;;24.40;62.40;;;;;;4876979;29;20092;-70
2023/05/28 10:24:45;;;;;;;6.88;3.10;;;24.50;62.00;;;;;;4875922;29;20044;-70
2023/05/28 10:27:18;;;;;;;8.68;3.78;;;24.60;61.40;;;;;;4885167;29;20061;-73
2023/05/28 10:29:47;;;;;;;8.88;3.60;;;24.90;60.80;;;;;;4872573;29;20041;-70
2023/05/28 10:32:14;;;;;;;8.32;3.13;;;25.00;59.00;;;;;;4872539;29;20033;-72
2023/05/28 10:34:41;;;;;;;7.75;3.20;;;25.00;59.10;;;;;;4870925;29;20227;-71
2023/05/28 10:37:09;;;;;;;5.80;2.75;;;25.10;57.70;;;;;;4861179;29;20303;-73
2023/05/28 10:39:41;;;;;;;7.78;3.22;;;25.00;58.60;;;;;;4890044;29;20036;-71
2023/05/28 10:42:17;;;;;;;7.05;3.55;;;25.10;58.20;;;;;;4890095;29;20322;-72
2023/05/28 10:44:50;;;;;;;7.28;3.45;;;25.20;59.30;;;;;;4885098;29;20090;-70
2023/05/28 10:47:17;;;;;;;8.30;3.58;;;25.30;59.30;;;;;;4890060;29;20033;-70
2023/05/28 10:50:00;;;;;;;7.45;3.33;;;25.40;59.50;;;;;;4888216;29;20031;-70
2023/05/28 10:52:26;;;;;;;7.30;3.50;;;25.30;57.80;;;;;;4890297;29;20032;-71
2023/05/28 10:54:53;;;;;;;8.43;2.75;;;25.20;58.20;;;;;;4890575;29;20032;-71
2023/05/28 10:57:23;;;;;;;7.47;3.05;;;25.40;59.20;;;;;;4888731;29;20106;-72
2023/05/28 11:00:07;;;;;;;8.90;3.05;;;25.50;59.00;;;;;;4890525;29;20029;-71
2023/05/28 11:02:34;;;;;;;7.68;3.30;;;25.70;58.30;;;;;;4889703;29;20327;-74
2023/05/28 11:05:02;;;;;;;7.20;3.03;;;25.80;58.70;;;;;;4890301;29;20048;-73
2023/05/28 11:07:30;;;;;;;7.25;3.17;;;25.90;58.00;;;;;;4887821;29;20031;-73
2023/05/28 11:09:57;;;;;;;;;;;26.00;58.00;;;;;;4880128;29;20100;-73
2023/05/28 11:12:26;;;;;;;9.07;3.53;;;26.10;58.30;;;;;;4870945;29;20204;-73
2023/05/28 11:14:52;;;;;;;7.00;2.90;;;26.30;57.50;;;;;;4881256;29;20037;-74
2023/05/28 11:17:18;;;;;;;9.65;3.53;;;26.40;57.40;;;;;;4889906;29;20334;-72
2023/05/28 11:19:46;;;;;;;8.75;3.30;;;26.60;58.20;;;;;;4889762;29;20114;-74
2023/05/28 11:22:13;;;;;;;9.90;3.25;;;26.80;58.00;;;;;;4890115;29;20043;-72
2023/05/28 11:24:59;;;;;;;9.50;3.67;;;26.90;57.40;;;;;;4873250;29;20336;-72
2023/05/28 11:27:28;;;;;;;7.70;3.13;;;27.10;56.60;;;;;;4889818;29;20036;-74
2023/05/28 11:30:18;;;;;;;7.70;3.17;;;27.30;56.10;;;;;;4890095;29;20036;-73
2023/05/28 11:32:45;;;;;;;9.00;3.30;;;27.60;55.20;;;;;;4889511;29;20037;-72
2023/05/28 11:35:12;;;;;;;5.53;3.00;;;28.00;54.60;;;;;;4889451;29;20311;-73
2023/05/28 11:37:40;;;;;;;6.53;3.05;;;28.70;54.30;;;;;;4881146;29;20061;-73
2023/05/28 11:40:10;;;;;;;8.07;2.80;;;29.50;52.70;;;;;;4878355;29;20056;-74
2023/05/28 11:42:38;;;;;;;9.35;3.30;;;30.10;52.50;;;;;;4884656;29;20040;-71
2023/05/28 11:45:05;;;;;;;7.80;3.00;;;30.60;50.40;;;;;;4889355;29;20040;-73
2023/05/28 11:47:35;;;;;;;5.45;2.75;;;31.30;50.60;;;;;;4889121;29;20029;-74
2023/05/28 11:50:08;;;;;;;6.28;2.65;;;32.00;49.30;;;;;;4889465;29;20043;-72
2023/05/28 11:52:34;;;;;;;6.53;2.92;;;32.60;47.20;;;;;;4872454;29;20095;-72
2023/05/28 11:55:01;;;;;;;5.68;2.80;;;32.50;46.80;;;;;;4889367;29;20037;-72
2023/05/28 11:57:33;;;;;;;5.88;2.83;;;33.30;46.60;;;;;;4884698;29;20040;-70
2023/05/28 12:00:10;;;;;;;6.15;3.10;;;33.90;45.90;;;;;;4889509;29;20052;-75
2023/05/28 12:02:43;;;;;;;4.60;2.65;;;34.40;44.90;;;;;;4888616;29;20239;-71
2023/05/28 12:05:09;;;;;;;8.20;2.85;;;34.50;44.40;;;;;;4889100;29;20200;-70
2023/05/28 12:07:35;;;;;;;7.10;3.22;;;35.30;44.30;;;;;;4888687;29;20108;-71
2023/05/28 12:10:05;;;;;;;7.55;3.28;;;36.00;44.20;;;;;;4885403;29;20070;-71
2023/05/28 12:12:31;;;;;;;5.63;3.10;;;36.50;44.70;;;;;;4870131;29;20065;-71
2023/05/28 12:14:58;;;;;;;5.03;2.85;;;36.70;43.40;;;;;;4878529;29;20119;-71
2023/05/28 12:17:24;;;;;;;4.85;2.65;;;37.00;41.90;;;;;;4888710;29;20118;-72
2023/05/28 12:19:50;;;;;;;6.13;3.30;;;37.30;41.90;;;;;;4889259;29;20041;-71
2023/05/28 12:22:18;;;;;;;5.55;2.92;;;37.70;42.40;;;;;;4889318;29;20051;-69
2023/05/28 12:24:51;;;;;;;6.07;3.28;;;38.20;41.90;;;;;;4888451;29;20208;-71
2023/05/28 12:27:18;;;;;;;6.05;2.88;;;38.30;41.60;;;;;;4888993;29;20041;-71
2023/05/28 12:29:44;;;;;;;6.13;3.00;;;38.90;41.50;;;;;;4888358;29;20290;-71
2023/05/28 12:32:09;;;;;;;5.65;3.00;;;39.00;42.10;;;;;;4889002;29;20310;-73
2023/05/28 12:34:35;;;;;;;5.63;2.72;;;39.50;42.00;;;;;;4888473;29;20025;-73
2023/05/28 12:37:01;;;;;;;5.35;3.00;;;40.10;41.30;;;;;;4888846;29;20025;-70
2023/05/28 12:39:27;;;;;;;5.95;2.75;;;40.20;40.00;;;;;;4887335;29;20036;-71
2023/05/28 12:41:52;;;;;;;5.75;3.13;;;40.10;40.90;;;;;;4883250;29;20057;-72
2023/05/28 12:44:18;;;;;;;5.80;3.00;;;40.60;39.90;;;;;;4888879;29;20060;-70
2023/05/28 12:46:44;;;;;;;3.92;2.60;;;40.70;40.40;;;;;;4888260;29;20039;-74
2023/05/28 12:49:09;;;;;;;5.07;2.90;;;40.40;40.00;;;;;;4890987;29;20094;-71
2023/05/28 12:51:36;;;;;;;6.22;3.00;;;40.00;40.00;;;;;;4892002;29;20096;-72
2023/05/28 12:54:02;;;;;;;6.60;3.37;;;40.70;39.80;;;;;;4892557;29;20036;-72
2023/05/28 12:56:27;;;;;;;5.78;2.97;;;40.60;39.00;;;;;;4888092;29;20030;-73
2023/05/28 12:58:53;;;;;;;6.43;3.00;;;40.70;39.00;;;;;;4873976;29;20063;-73
2023/05/28 13:01:19;;;;;;;6.70;2.95;;;40.90;39.30;;;;;;4876885;29;20146;-71
2023/05/28 13:03:45;;;;;;;5.88;3.22;;;40.20;39.50;;;;;;4891582;29;20065;-73
2023/05/28 13:06:11;;;;;;;8.02;3.42;;;40.20;39.70;;;;;;4892614;29;20041;-72
2023/05/28 13:08:37;;;;;;;5.37;3.10;;;40.50;39.50;;;;;;4875161;29;20037;-70
2023/05/28 13:11:03;;;;;;;5.72;2.95;;;40.80;39.50;;;;;;4892757;29;20616;-73
2023/05/28 13:13:29;;;;;;;5.55;2.83;;;40.90;39.50;;;;;;4891780;29;20223;-71
2023/05/28 13:15:55;;;;;;;4.53;2.90;;;40.60;39.40;;;;;;4892558;29;20024;-72
2023/05/28 13:18:21;;;;;;;4.97;2.80;;;41.30;39.50;;;;;;4892283;29;20307;-70
2023/05/28 13:20:47;;;;;;;8.52;2.80;;;42.30;39.20;;;;;;4891761;29;20041;-70
2023/05/28 13:23:12;;;;;;;6.13;2.70;;;42.50;39.30;;;;;;4892323;29;20029;-71
2023/05/28 13:25:38;;;;;;;5.60;2.97;;;43.10;38.60;;;;;;4891985;29;20020;-74
2023/05/28 13:28:04;;;;;;;4.70;2.60;;;42.50;38.80;;;;;;4892050;29;20318;-72
2023/05/28 13:30:30;;;;;;;6.35;2.97;;;42.60;39.00;;;;;;4891751;29;20048;-72
2023/05/28 13:32:55;;;;;;;6.63;2.97;;;42.70;38.10;;;;;;4892206;29;20033;-72
2023/05/28 13:35:21;;;;;;;4.55;2.55;;;42.20;38.00;;;;;;4891729;29;20036;-70
2023/05/28 13:37:47;;;;;;;5.22;3.28;;;42.20;38.40;;;;;;4891639;29;20416;-71
2023/05/28 13:40:13;;;;;;;6.38;2.90;;;42.60;37.70;;;;;;4891963;29;20032;-71
2023/05/28 13:42:40;;;;;;;4.80;2.47;;;43.40;37.90;;;;;;4874794;29;20060;-70
2023/05/28 13:45:07;;;;;;;7.78;3.00;;;43.10;37.10;;;;;;4892028;29;20052;-73
2023/05/28 13:47:33;;;;;;;5.03;2.85;;;42.60;37.80;;;;;;4891592;29;20056;-74
2023/05/28 13:49:59;;;;;;;5.70;3.08;;;42.90;37.90;;;;;;4892091;29;20085;-73
2023/05/28 13:52:25;;;;;;;6.15;2.85;;;43.40;37.30;;;;;;4896009;29;20096;-73
2023/05/28 13:54:50;;;;;;;5.68;2.80;;;43.80;37.00;;;;;;4891767;29;20214;-72
2023/05/28 13:57:19;;;;;;;5.05;2.83;;;44.40;37.10;;;;;;4891841;29;20029;-71
2023/05/28 13:59:45;;;;;;;4.90;2.90;;;44.20;36.50;;;;;;4891154;29;20095;-71
2023/05/28 14:02:10;;;;;;;5.32;2.80;;;43.60;37.30;;;;;;4891459;29;20200;-70
2023/05/28 14:04:36;;;;;;;7.18;3.38;;;43.70;37.20;;;;;;4891114;29;20037;-71
2023/05/28 14:07:02;;;;;;;4.82;2.42;;;42.70;37.40;;;;;;4891688;29;20077;-70
2023/05/28 14:09:28;;;;;;;7.75;3.15;;;43.00;37.90;;;;;;4891529;29;20104;-74
2023/05/28 14:11:55;;;;;;;5.80;2.63;;;43.80;36.90;;;;;;4890813;29;20033;-72
2023/05/28 14:14:21;;;;;;;;;;;43.20;37.00;;;;;;4891579;29;20059;-73
2023/05/28 14:16:47;;;;;;;6.93;2.93;;;43.40;37.50;;;;;;4890593;29;20174;-71
2023/05/28 14:19:12;;;;;;;5.65;2.90;;;42.70;37.10;;;;;;4891284;29;20033;-73
2023/05/28 14:21:38;;;;;;;6.03;2.88;;;43.20;37.20;;;;;;4890676;29;20041;-74
2023/05/28 14:24:04;;;;;;;5.78;3.03;;;42.60;37.10;;;;;;4890176;29;20056;-75
2023/05/28 14:26:30;;;;;;;5.75;2.97;;;42.80;37.40;;;;;;4891213;29;20051;-72
2023/05/28 14:28:56;;;;;;;4.72;2.80;;;42.90;37.20;;;;;;4890892;29;20017;-70
2023/05/28 14:31:22;;;;;;;5.10;3.05;;;43.70;37.90;;;;;;4891168;29;20260;-70
2023/05/28 14:33:50;;;;;;;5.93;2.85;;;45.00;35.60;;;;;;4890212;29;20045;-71
2023/05/28 14:36:16;;;;;;;7.70;3.05;;;45.00;36.10;;;;;;4891028;29;20043;-71
2023/05/28 14:38:41;;;;;;;6.72;3.33;;;45.10;36.20;;;;;;4890330;29;20060;-71
2023/05/28 14:41:07;;;;;;;7.57;3.63;;;45.30;36.30;;;;;;4890455;29;20310;-72
2023/05/28 14:43:33;;;;;;;5.50;3.00;;;45.10;36.50;;;;;;4890246;29;20059;-70
2023/05/28 14:45:58;;;;;;;6.80;3.00;;;45.10;36.60;;;;;;4892410;29;20033;-71
2023/05/28 14:48:24;;;;;;;6.88;2.90;;;44.80;36.50;;;;;;4893786;29;20060;-70
2023/05/28 14:50:50;;;;;;;5.00;2.53;;;44.00;36.40;;;;;;4895798;29;20411;-69
2023/05/28 14:53:15;;;;;;;6.53;3.38;;;43.10;37.20;;;;;;4878389;29;20024;-73
2023/05/28 14:55:41;;;;;;;5.93;3.13;;;42.50;37.20;;;;;;4890226;29;20037;-71
2023/05/28 14:58:07;;;;;;;8.38;3.58;;;42.60;37.40;;;;;;4890393;29;20045;-72
2023/05/28 15:00:33;;;;;;;5.47;2.88;;;42.60;37.40;;;;;;4889793;29;20077;-72
2023/05/28 15:02:59;;;;;;;6.13;3.17;;;43.00;37.20;;;;;;4890370;29;20060;-70
2023/05/28 15:05:27;;;;;;;5.22;2.92;;;43.50;37.00;;;;;;4890292;29;20060;-71
2023/05/28 15:07:53;;;;;;;4.40;2.92;;;42.80;37.00;;;;;;4889790;29;20460;-72
2023/05/28 15:10:19;;;;;;;5.50;3.40;;;42.30;37.10;;;;;;4873602;29;20033;-71
2023/05/28 15:12:45;;;;;;;5.35;3.13;;;42.60;38.00;;;;;;4888954;29;20099;-70
2023/05/28 15:15:11;;;;;;;5.10;3.08;;;43.10;37.80;;;;;;4890167;29;20337;-71
2023/05/28 15:17:37;;;;;;;6.00;3.10;;;44.20;36.60;;;;;;4889213;29;20120;-69
2023/05/28 15:20:04;;;;;;;7.75;3.53;;;43.80;36.50;;;;;;4889998;29;20037;-70
2023/05/28 15:22:30;;;;;;;;;;;43.40;37.40;;;;;;4890267;29;20045;-71
2023/05/28 15:24:55;;;;;;;5.20;2.70;;;43.30;36.90;;;;;;4889363;29;19947;-72
2023/05/28 15:27:21;;;;;;;5.85;3.13;;;42.70;36.40;;;;;;4889978;29;20041;-71
2023/05/28 15:29:47;;;;;;;5.28;3.08;;;42.90;36.60;;;;;;4889166;29;20097;-73
2023/05/28 15:32:15;;;;;;;6.35;3.80;;;43.30;36.70;;;;;;4889925;29;20240;-72
2023/05/28 15:34:41;;;;;;;6.72;3.67;;;43.10;36.20;;;;;;4889056;29;20033;-71
2023/05/28 15:37:08;;;;;;;8.57;3.55;;;43.30;36.20;;;;;;4889791;29;20053;-72
2023/05/28 15:39:34;;;;;;;6.05;3.35;;;43.60;36.40;;;;;;4889803;29;20354;-72
2023/05/28 15:42:03;;;;;;;6.53;3.55;;;43.10;36.60;;;;;;4889342;29;20033;-71
2023/05/28 15:44:29;;;;;;;9.02;4.13;;;43.20;36.00;;;;;;4889327;29;20335;-72
2023/05/28 15:46:55;;;;;;;6.70;3.47;;;43.50;36.00;;;;;;4889051;29;20056;-73
2023/05/28 15:49:20;;;;;;;5.57;3.63;;;43.20;36.40;;;;;;4889540;29;20089;-72
2023/05/28 15:51:46;;;;;;;6.00;3.53;;;43.00;35.90;;;;;;4888630;29;20085;-71
2023/05/28 15:54:12;;;;;;;7.85;3.70;;;41.70;36.80;;;;;;4889384;29;20041;-70
2023/05/28 15:56:39;;;;;;;6.05;3.70;;;41.80;36.90;;;;;;4872289;29;20252;-72
2023/05/28 15:59:05;;;;;;;5.03;3.45;;;42.10;36.20;;;;;;4889356;29;20037;-74
2023/05/28 16:01:31;;;;;;;5.47;3.30;;;42.50;36.20;;;;;;4888690;29;20056;-75
2023/05/28 16:03:57;;;;;;;5.57;3.57;;;42.30;36.10;;;;;;4888630;29;20080;-72
2023/05/28 16:06:23;;;;;;;4.95;3.00;;;42.40;36.20;;;;;;4889019;29;20041;-73
2023/05/28 16:08:49;;;;;;;6.95;3.83;;;43.00;35.90;;;;;;4888545;29;20107;-71
2023/05/28 16:11:17;;;;;;;6.68;3.47;;;42.80;35.50;;;;;;4889198;29;20037;-72
2023/05/28 16:13:45;;;;;;;4.80;3.40;;;43.00;36.00;;;;;;4888615;29;20093;-73
2023/05/28 16:16:15;;;;;;;7.63;3.83;;;42.70;35.50;;;;;;4888995;29;20033;-72
2023/05/28 16:18:42;;;;;;;5.68;4.03;;;42.30;36.00;;;;;;4888249;29;20041;-74
2023/05/28 16:21:08;;;;;;;6.28;3.95;;;41.90;36.20;;;;;;4889111;29;20032;-73
2023/05/28 16:23:34;;;;;;;7.88;4.07;;;41.30;36.50;;;;;;4888174;29;20330;-72
2023/05/28 16:26:00;;;;;;;6.60;4.38;;;40.80;36.90;;;;;;4888187;29;20036;-73
2023/05/28 16:28:26;;;;;;;6.50;4.15;;;39.60;37.30;;;;;;4889071;29;20127;-71
2023/05/28 16:30:55;;;;;;;5.55;3.85;;;39.60;38.00;;;;;;4888115;29;20318;-72
2023/05/28 16:33:21;;;;;;;7.20;3.97;;;39.10;37.60;;;;;;4887528;29;20222;-73
2023/05/28 16:35:47;;;;;;;7.35;4.40;;;39.80;37.30;;;;;;4888433;29;20037;-71
2023/05/28 16:38:13;;;;;;;5.95;4.32;;;40.20;38.00;;;;;;4888819;29;20040;-73
2023/05/28 16:40:39;;;;;;;8.63;4.70;;;40.60;37.00;;;;;;4887979;29;20370;-74
2023/05/28 16:43:08;;;;;;;6.68;3.88;;;40.40;36.80;;;;;;4888691;29;20048;-75
2023/05/28 16:45:35;;;;;;;7.90;4.18;;;39.80;37.40;;;;;;4888456;29;20040;-73
2023/05/28 16:48:01;;;;;;;7.53;4.57;;;39.10;37.60;;;;;;4871612;29;20068;-72
2023/05/28 16:50:27;;;;;;;7.82;4.20;;;37.90;38.30;;;;;;4888830;29;20342;-72
2023/05/28 16:52:54;;;;;;;6.32;4.32;;;36.20;39.70;;;;;;4888091;29;20033;-72
2023/05/28 16:55:20;;;;;;;6.53;4.05;;;35.20;40.40;;;;;;4872103;29;20055;-74
2023/05/28 16:57:45;;;;;;;8.23;4.05;;;34.60;41.30;;;;;;4888240;29;20029;-72
2023/05/28 17:00:19;;;;;;;7.63;4.68;;;34.30;41.70;;;;;;4888584;29;20029;-73
2023/05/28 17:02:49;;;;;;;8.48;4.15;;;34.70;40.90;;;;;;4887962;29;20326;-73
2023/05/28 17:05:16;;;;;;;8.15;3.97;;;34.60;41.50;;;;;;4888525;29;20049;-72
2023/05/28 17:07:42;;;;;;;7.28;4.30;;;35.00;41.10;;;;;;4888267;29;20198;-72
2023/05/28 17:10:08;;;;;;;6.22;4.45;;;36.30;40.10;;;;;;4888653;29;20033;-71
2023/05/28 17:12:35;;;;;;;7.10;4.00;;;36.80;39.80;;;;;;4888533;29;20033;-71
2023/05/28 17:15:01;;;;;;;6.63;4.03;;;36.80;39.90;;;;;;4871523;29;20467;-71
2023/05/28 17:17:27;;;;;;;6.72;3.95;;;37.30;39.50;;;;;;4888442;29;20021;-71
2023/05/28 17:19:52;;;;;;;6.32;3.47;;;37.00;40.00;;;;;;4887775;29;20260;-73
2023/05/28 17:22:18;;;;;;;7.50;4.32;;;36.40;40.50;;;;;;4871813;29;20036;-72
2023/05/28 17:24:44;;;;;;;7.10;3.75;;;36.40;40.00;;;;;;4887635;29;20044;-73
2023/05/28 17:27:09;;;;;;;7.28;3.58;;;36.50;39.80;;;;;;4888214;29;20045;-74
2023/05/28 17:29:35;;;;;;;5.85;3.58;;;36.50;39.80;;;;;;4888115;29;20041;-73
2023/05/28 17:32:01;;;;;;;7.60;4.05;;;36.50;39.80;;;;;;4871289;29;20396;-72
2023/05/28 17:34:26;;;;;;;8.40;4.70;;;36.80;40.00;;;;;;4889139;29;20065;-72
2023/05/28 17:36:52;;;;;;;8.57;4.60;;;36.50;39.70;;;;;;4874727;29;20256;-73
2023/05/28 17:39:18;;;;;;;6.55;3.75;;;36.60;40.40;;;;;;4891545;29;20029;-72
2023/05/28 17:41:44;;;;;;;7.13;4.13;;;36.10;40.10;;;;;;4874551;29;20077;-72
2023/05/28 17:44:12;;;;;;;8.93;4.07;;;35.00;40.40;;;;;;4859631;29;20033;-71
2023/05/28 17:46:40;;;;;;;7.22;3.70;;;34.70;40.80;;;;;;4891438;29;20375;-71
2023/05/28 17:49:07;;;;;;;7.60;4.30;;;34.10;41.30;;;;;;4874599;29;20029;-70